Time;durP1;ratioP1;P1;durP2;ratioP2;P2;SDS_P1;SDS_P2;PMS_P1;PMS_P2;Temp;Humidity;BMP_temperature;BMP_pressure;BME280_temperature;BME280_humidity;BME280_pressure;Samples;Min_cycle;Max_cycle;Signal;HPM_P1;HPM_P2
2023/07/24 00:02:04;;;;;;;;;;;19.70;82.20;;;;;;5112769;28;19919;-27
2023/07/24 00:04:31;;;;;;;;;;;19.60;82.20;;;;;;5109429;28;20435;-33
2023/07/24 00:06:56;;;;;;;;;;;19.60;82.40;;;;;;5112812;28;19908;-28
2023/07/24 00:09:21;;;;;;;;;;;19.60;82.40;;;;;;5112815;28;20048;-27
2023/07/24 00:11:47;;;;;;;;;;;19.60;82.40;;;;;;5112957;28;19915;-36
2023/07/24 00:14:12;;;;;;;;;;;19.60;82.40;;;;;;5094424;28;20409;-27
2023/07/24 00:16:38;;;;;;;;;;;19.60;82.40;;;;;;5113001;28;19958;-36
2023/07/24 00:19:03;;;;;;;;;;;19.60;82.40;;;;;;5094423;28;19958;-26
2023/07/24 00:21:30;;;;;;;;;;;19.60;82.40;;;;;;5112870;28;19930;-29
2023/07/24 00:23:55;;;;;;;;;;;19.60;82.40;;;;;;5112514;28;19951;-27
2023/07/24 00:26:21;;;;;;;;;;;19.60;82.40;;;;;;5112462;28;19915;-26
2023/07/24 00:28:46;;;;;;;;;;;19.60;82.40;;;;;;5112527;28;19914;-29
2023/07/24 00:31:12;;;;;;;;;;;19.60;82.30;;;;;;5112514;28;20274;-30
2023/07/24 00:33:37;;;;;;;;;;;19.60;82.30;;;;;;5112554;28;20197;-26
2023/07/24 00:36:02;;;;;;;;;;;19.60;82.50;;;;;;5112739;28;19908;-29
2023/07/24 00:38:29;;;;;;;;;;;19.60;82.50;;;;;;5112472;28;19908;-27
2023/07/24 00:40:55;;;;;;;;;;;19.60;82.50;;;;;;5112412;28;19907;-27
2023/07/24 00:43:20;;;;;;;;;;;19.50;82.40;;;;;;5112399;28;20381;-30
2023/07/24 00:45:46;;;;;;;;;;;19.60;82.60;;;;;;5112198;28;19912;-26
2023/07/24 00:48:12;;;;;;;;;;;19.50;82.50;;;;;;5112171;28;19919;-29
2023/07/24 00:50:37;;;;;;;;;;;19.50;82.60;;;;;;5112477;28;19915;-27
2023/07/24 00:53:04;;;;;;;;;;;19.50;82.60;;;;;;5112496;28;19908;-28
2023/07/24 00:55:29;;;;;;;;;;;19.50;82.70;;;;;;5112134;28;20002;-30
2023/07/24 00:57:55;;;;;;;;;;;19.40;83.00;;;;;;5094298;28;19942;-26
2023/07/24 01:00:21;;;;;;;;;;;19.40;82.80;;;;;;5112201;28;19953;-30
2023/07/24 01:02:47;;;;;;;;;;;19.40;82.80;;;;;;5112671;28;19915;-28
2023/07/24 01:05:13;;;;;;;;;;;19.40;82.70;;;;;;5112847;28;19912;-29
2023/07/24 01:07:39;;;;;;;;;;;19.40;82.70;;;;;;5112659;28;20531;-28
2023/07/24 01:10:06;;;;;;;;;;;19.40;82.70;;;;;;5112679;28;19962;-31
2023/07/24 01:12:50;;;;;;;;;;;19.40;82.60;;;;;;5112705;28;19929;-26
2023/07/24 01:15:19;;;;;;;;;;;19.40;82.60;;;;;;5115933;28;20513;-30
2023/07/24 01:17:47;;;;;;;;;;;19.50;82.60;;;;;;5116546;28;19908;-29
2023/07/24 01:20:15;;;;;;;;;;;19.40;82.60;;;;;;5116520;28;19914;-27
2023/07/24 01:22:48;;;;;;;;;;;19.50;82.60;;;;;;5116416;28;19916;-30
2023/07/24 01:25:35;;;;;;;;;;;19.40;82.60;;;;;;5116143;28;19960;-29
2023/07/24 01:28:01;;;;;;;;;;;19.40;82.60;;;;;;5116755;28;19914;-27
2023/07/24 01:30:26;;;;;;;;;;;19.50;82.60;;;;;;5116282;28;20416;-37
2023/07/24 01:32:52;;;;;;;;;;;19.50;82.60;;;;;;5116283;28;20011;-25
2023/07/24 01:35:17;;;;;;;;;;;19.50;82.60;;;;;;5116387;28;19961;-27
2023/07/24 01:37:43;;;;;;;;;;;19.50;82.60;;;;;;5116411;28;20301;-26
2023/07/24 01:40:10;;;;;;;;;;;19.40;82.60;;;;;;5116141;28;19914;-27
2023/07/24 01:42:35;;;;;;;;;;;19.40;82.60;;;;;;5116168;28;19908;-27
2023/07/24 01:45:02;;;;;;;;;;;19.40;82.70;;;;;;5116202;28;20317;-27
2023/07/24 01:47:27;;;;;;;;;;;19.40;82.80;;;;;;5115924;28;19907;-33
2023/07/24 01:49:53;;;;;;;;;;;19.30;82.90;;;;;;5115723;28;19926;-25
2023/07/24 01:52:19;;;;;;;;;;;19.40;83.00;;;;;;5115824;28;19978;-27
2023/07/24 01:54:44;;;;;;;;;;;19.30;82.90;;;;;;5115767;28;19908;-27
2023/07/24 01:57:10;;;;;;;;;;;19.30;83.00;;;;;;5115997;28;19908;-27
2023/07/24 01:59:35;;;;;;;;;;;19.30;82.90;;;;;;5115774;28;19965;-29
2023/07/24 02:02:01;;;;;;;;;;;19.30;83.00;;;;;;5115617;28;19908;-27
2023/07/24 02:04:26;;;;;;;;;;;19.30;83.00;;;;;;5115558;28;19919;-26
2023/07/24 02:06:52;;;;;;;;;;;19.30;83.00;;;;;;5115569;28;19908;-26
2023/07/24 02:09:18;;;;;;;;;;;19.30;83.00;;;;;;5115462;28;19908;-26
2023/07/24 02:11:43;;;;;;;;;;;19.30;83.10;;;;;;5115511;28;19908;-32
2023/07/24 02:14:10;;;;;;;;;;;19.30;83.20;;;;;;5115424;28;20502;-27
2023/07/24 02:16:35;;;;;;;;;;;19.30;83.20;;;;;;5115539;28;19914;-27
2023/07/24 02:19:01;;;;;;;;;;;19.30;83.20;;;;;;5115323;28;19907;-27
2023/07/24 02:21:26;;;;;;;;;;;19.30;83.20;;;;;;5115303;28;19908;-26
2023/07/24 02:23:52;;;;;;;;;;;19.30;83.20;;;;;;5115147;28;19908;-29
2023/07/24 02:26:17;;;;;;;;;;;19.30;83.10;;;;;;5115097;28;19912;-26
2023/07/24 02:28:43;;;;;;;;;;;19.30;83.10;;;;;;5115115;28;19914;-26
2023/07/24 02:31:08;;;;;;;;;;;19.30;83.00;;;;;;5115012;28;19912;-29
2023/07/24 02:33:33;;;;;;;;;;;19.30;83.20;;;;;;5114928;28;19908;-25
2023/07/24 02:36:00;;;;;;;;;;;19.30;83.10;;;;;;5115028;28;19912;-29
2023/07/24 02:38:26;;;;;;;;;;;19.40;83.20;;;;;;5115040;28;19907;-31
2023/07/24 02:40:51;;;;;;;;;;;19.40;83.10;;;;;;5114667;28;19908;-27
2023/07/24 02:43:16;;;;;;;;;;;19.40;83.00;;;;;;5114646;28;19908;-27
2023/07/24 02:45:42;;;;;;;;;;;19.40;83.00;;;;;;5114863;28;19935;-25
2023/07/24 02:48:07;;;;;;;;;;;19.40;83.10;;;;;;5114577;28;19962;-26
2023/07/24 02:50:33;;;;;;;;;;;19.40;83.00;;;;;;5114637;28;19915;-25
2023/07/24 02:52:59;;;;;;;;;;;19.40;83.00;;;;;;5096764;28;19915;-25
2023/07/24 02:55:24;;;;;;;;;;;19.40;83.00;;;;;;5114422;28;19908;-25
2023/07/24 02:57:50;;;;;;;;;;;19.40;83.00;;;;;;5114422;28;19957;-28
2023/07/24 03:00:16;;;;;;;;;;;19.40;83.00;;;;;;5114409;28;20270;-30
2023/07/24 03:02:41;;;;;;;;;;;19.40;83.00;;;;;;5114376;28;20267;-29
2023/07/24 03:05:07;;;;;;;;;;;19.40;83.20;;;;;;5114602;28;19911;-28
2023/07/24 03:07:32;;;;;;;;;;;19.40;83.10;;;;;;5114517;28;19908;-26
2023/07/24 03:09:58;;;;;;;;;;;19.40;83.20;;;;;;5114422;28;19961;-34
2023/07/24 03:12:23;;;;;;;;;;;19.40;83.20;;;;;;5114579;28;19908;-29
2023/07/24 03:14:49;;;;;;;;;;;19.30;83.20;;;;;;5114609;28;19915;-26
2023/07/24 03:17:14;;;;;;;;;;;19.30;83.80;;;;;;5114220;28;19973;-28
2023/07/24 03:19:40;;;;;;;;;;;19.30;83.40;;;;;;5114067;28;19918;-28
2023/07/24 03:22:06;;;;;;;;;;;19.30;83.50;;;;;;5113908;28;19908;-25
2023/07/24 03:24:31;;;;;;;;;;;19.30;83.50;;;;;;5095716;28;19989;-30
2023/07/24 03:26:57;;;;;;;;;;;19.30;83.60;;;;;;5114292;28;19908;-27
2023/07/24 03:29:22;;;;;;;;;;;19.20;83.50;;;;;;5114216;28;19915;-25
2023/07/24 03:31:47;;;;;;;;;;;19.30;83.60;;;;;;5114152;28;19908;-32
2023/07/24 03:34:13;;;;;;;;;;;19.30;83.50;;;;;;5113823;28;19907;-27
2023/07/24 03:36:41;;;;;;;;;;;19.20;83.50;;;;;;5113463;28;19912;-28
2023/07/24 03:39:07;;;;;;;;;;;19.20;83.50;;;;;;5114260;28;19914;-29
2023/07/24 03:41:32;;;;;;;;;;;19.20;83.50;;;;;;5113801;28;20519;-26
2023/07/24 03:43:58;;;;;;;;;;;19.20;83.50;;;;;;5113752;28;19911;-31
2023/07/24 03:46:24;;;;;;;;;;;19.20;83.60;;;;;;5113573;28;19977;-26
2023/07/24 03:48:50;;;;;;;;;;;19.20;83.60;;;;;;5113711;28;20002;-28
2023/07/24 03:51:16;;;;;;;;;;;19.20;83.60;;;;;;5113931;28;19912;-37
2023/07/24 03:53:41;;;;;;;;;;;19.20;83.70;;;;;;5113533;28;19915;-26
2023/07/24 03:56:07;;;;;;;;;;;19.20;83.70;;;;;;5113429;28;20477;-29
2023/07/24 03:58:32;;;;;;;;;;;19.20;83.60;;;;;;5113746;28;19912;-28
2023/07/24 04:00:58;;;;;;;;;;;19.10;83.50;;;;;;5113818;28;20390;-28
2023/07/24 04:03:23;;;;;;;;;;;19.10;83.60;;;;;;5113319;28;19915;-27
2023/07/24 04:05:49;;;;;;;;;;;19.10;83.80;;;;;;5112189;28;19912;-29
2023/07/24 04:08:14;;;;;;;;;;;19.10;83.90;;;;;;5112466;28;20352;-27
2023/07/24 04:10:39;;;;;;;;;;;19.00;83.90;;;;;;5112940;28;19912;-27
2023/07/24 04:13:05;;;;;;;;;;;19.00;84.00;;;;;;5113386;28;19998;-26
2023/07/24 04:15:30;;;;;;;;;;;19.00;84.10;;;;;;5113535;28;19908;-28
2023/07/24 04:17:56;;;;;;;;;;;19.00;84.20;;;;;;5095139;28;20607;-27
2023/07/24 04:20:21;;;;;;;;;;;18.90;84.10;;;;;;5113326;28;19908;-28
2023/07/24 04:22:47;;;;;;;;;;;18.90;84.10;;;;;;5113329;28;19908;-29
2023/07/24 04:25:12;;;;;;;;;;;18.90;84.00;;;;;;5113214;28;19912;-29
2023/07/24 04:27:38;;;;;;;;;;;18.90;84.00;;;;;;5113250;28;20337;-28
2023/07/24 04:30:04;;;;;;;;;;;18.90;84.00;;;;;;5113126;28;19957;-26
2023/07/24 04:32:29;;;;;;;;;;;18.90;84.00;;;;;;5113426;28;20000;-26
2023/07/24 04:34:54;;;;;;;;;;;18.90;84.00;;;;;;5113107;28;19911;-27
2023/07/24 04:37:20;;;;;;;;;;;18.90;84.00;;;;;;5113108;28;19943;-31
2023/07/24 04:39:45;;;;;;;;;;;18.90;84.00;;;;;;5094784;28;19908;-26
2023/07/24 04:42:11;;;;;;;;;;;18.90;84.10;;;;;;5113049;28;19907;-30
2023/07/24 04:44:36;;;;;;;;;;;18.80;84.00;;;;;;5112903;28;19939;-26
2023/07/24 04:47:02;;;;;;;;;;;18.90;84.10;;;;;;5113049;28;19908;-26
2023/07/24 04:49:32;;;;;;;;;;;18.80;84.10;;;;;;5114799;28;20544;-27
2023/07/24 04:51:58;;;;;;;;;;;18.80;84.00;;;;;;5117025;28;19957;-35
2023/07/24 04:54:24;;;;;;;;;;;18.90;84.10;;;;;;5117193;28;19993;-31
2023/07/24 04:56:49;;;;;;;;;;;18.90;84.00;;;;;;5117356;28;19919;-30
2023/07/24 04:59:15;;;;;;;;;;;18.90;84.10;;;;;;5113785;28;20300;-27
2023/07/24 05:01:40;;;;;;;;;;;18.80;84.00;;;;;;5117146;28;20371;-33
2023/07/24 05:04:06;;;;;;;;;;;18.90;84.10;;;;;;5116782;28;19919;-26
2023/07/24 05:06:35;;;;;;;;;;;18.80;84.10;;;;;;5116701;28;19965;-28
2023/07/24 05:09:01;;;;;;;;;;;18.80;84.10;;;;;;5099082;28;19992;-31
2023/07/24 05:11:26;;;;;;;;;;;18.80;84.20;;;;;;5116813;28;19962;-26
2023/07/24 05:13:51;;;;;;;;;;;18.80;84.20;;;;;;5116543;28;19915;-25
2023/07/24 05:16:17;;;;;;;;;;;18.70;84.20;;;;;;5117036;28;19915;-27
2023/07/24 05:18:42;;;;;;;;;;;18.80;84.20;;;;;;5116610;28;19912;-27
2023/07/24 05:21:08;;;;;;;;;;;18.80;84.20;;;;;;5116822;28;20347;-28
2023/07/24 05:23:33;;;;;;;;;;;18.80;84.20;;;;;;5116813;28;19914;-26
2023/07/24 05:25:59;;;;;;;;;;;18.80;84.20;;;;;;5116380;28;19916;-26
2023/07/24 05:28:28;;;;;;;;;;;18.80;84.30;;;;;;5116671;28;20349;-33
2023/07/24 05:30:54;;;;;;;;;;;18.80;84.20;;;;;;5116306;28;19908;-26
2023/07/24 05:33:19;;;;;;;;;;;18.70;84.20;;;;;;5116571;28;19919;-28
2023/07/24 05:35:45;;;;;;;;;;;18.70;84.30;;;;;;5116269;28;20352;-26
2023/07/24 05:38:10;;;;;;;;;;;18.70;84.30;;;;;;5116120;28;19908;-29
2023/07/24 05:40:36;;;;;;;;;;;18.80;84.30;;;;;;5116341;28;19915;-30
2023/07/24 05:43:01;;;;;;;;;;;18.80;84.20;;;;;;5116142;28;19908;-28
2023/07/24 05:45:27;;;;;;;;;;;18.80;84.30;;;;;;5116306;28;19999;-25
2023/07/24 05:47:53;;;;;;;;;;;18.80;84.20;;;;;;5115730;28;19916;-27
2023/07/24 05:50:19;;;;;;;;;;;18.90;84.20;;;;;;5115853;28;20340;-26
2023/07/24 05:52:45;;;;;;;;;;;18.90;84.20;;;;;;5116206;28;20379;-25
2023/07/24 05:55:10;;;;;;;;;;;18.90;84.10;;;;;;5115871;28;19908;-29
2023/07/24 05:57:36;;;;;;;;;;;18.90;84.00;;;;;;5115902;28;19908;-28
2023/07/24 06:00:03;;;;;;;;;;;19.00;84.10;;;;;;5115371;28;19944;-31
2023/07/24 06:02:28;;;;;;;;;;;18.90;84.00;;;;;;5115813;28;19908;-26
2023/07/24 06:04:53;;;;;;;;;;;19.00;84.10;;;;;;5115912;28;19960;-29
2023/07/24 06:07:19;;;;;;;;;;;18.90;84.10;;;;;;5115680;28;19918;-26
2023/07/24 06:09:44;;;;;;;;;;;19.00;84.10;;;;;;5115495;28;19907;-27
2023/07/24 06:12:10;;;;;;;;;;;19.00;84.10;;;;;;5115925;28;19908;-30
2023/07/24 06:14:35;;;;;;;;;;;19.00;84.10;;;;;;5115492;28;19907;-26
2023/07/24 06:17:01;;;;;;;;;;;18.90;84.20;;;;;;5115462;28;19907;-27
2023/07/24 06:19:26;;;;;;;;;;;18.90;84.20;;;;;;5096868;28;19914;-27
2023/07/24 06:21:52;;;;;;;;;;;18.90;84.20;;;;;;5112051;28;19916;-31
2023/07/24 06:24:18;;;;;;;;;;;18.90;84.30;;;;;;5115197;28;20393;-26
2023/07/24 06:26:43;;;;;;;;;;;18.90;84.30;;;;;;5115269;28;19931;-27
2023/07/24 06:29:08;;;;;;;;;;;18.90;84.20;;;;;;5115183;28;19911;-27
2023/07/24 06:31:34;;;;;;;;;;;18.90;84.30;;;;;;5115236;28;19907;-27
2023/07/24 06:33:59;;;;;;;;;;;19.00;84.30;;;;;;5114895;28;19912;-27
2023/07/24 06:36:26;;;;;;;;;;;19.00;84.30;;;;;;5115272;28;19915;-27
2023/07/24 06:38:51;;;;;;;;;;;19.00;84.20;;;;;;5114911;28;19908;-27
2023/07/24 06:41:17;;;;;;;;;;;19.00;84.20;;;;;;5096661;28;19953;-29
2023/07/24 06:43:42;;;;;;;;;;;19.10;84.20;;;;;;5114839;28;20368;-27
2023/07/24 06:46:08;;;;;;;;;;;19.10;84.10;;;;;;5114641;28;19931;-29
2023/07/24 06:48:33;;;;;;;;;;;19.20;84.10;;;;;;5113492;28;19949;-28
2023/07/24 06:50:59;;;;;;;;;;;19.30;83.90;;;;;;5113734;28;19960;-32
2023/07/24 06:53:24;;;;;;;;;;;19.40;83.70;;;;;;5113559;28;20003;-29
2023/07/24 06:55:50;;;;;;;;;;;19.30;83.60;;;;;;5113671;28;19911;-27
2023/07/24 06:58:15;;;;;;;;;;;19.30;83.60;;;;;;5095116;28;19908;-26
2023/07/24 07:00:40;;;;;;;;;;;19.30;83.60;;;;;;5113510;28;19907;-29
2023/07/24 07:03:06;;;;;;;;;;;19.20;83.70;;;;;;5113675;28;19907;-32
2023/07/24 07:05:32;;;;;;;;;;;19.20;83.90;;;;;;5114103;28;19912;-29
2023/07/24 07:07:57;;;;;;;;;;;19.20;84.00;;;;;;5114577;28;19908;-27
2023/07/24 07:10:23;;;;;;;;;;;19.20;83.90;;;;;;5114444;28;20340;-29
2023/07/24 07:12:48;;;;;;;;;;;19.30;83.80;;;;;;5114008;28;19911;-28
2023/07/24 07:15:14;;;;;;;;;;;19.40;83.80;;;;;;5114314;28;19907;-32
2023/07/24 07:17:39;;;;;;;;;;;19.40;83.60;;;;;;5114225;28;19954;-28
2023/07/24 07:20:05;;;;;;;;;;;19.50;83.50;;;;;;5114616;28;19912;-27
2023/07/24 07:22:31;;;;;;;;;;;19.60;83.40;;;;;;5114146;28;19957;-28
2023/07/24 07:24:56;;;;;;;;;;;19.70;83.20;;;;;;5113998;28;19919;-26
2023/07/24 07:27:22;;;;;;;;;;;19.70;83.00;;;;;;5114021;28;19908;-28
2023/07/24 07:29:47;;;;;;;;;;;19.70;83.00;;;;;;5110883;28;20026;-28
2023/07/24 07:32:13;;;;;;;;;;;19.80;83.00;;;;;;5114047;28;20013;-29
2023/07/24 07:34:39;;;;;;;;;;;19.90;82.80;;;;;;5114189;28;20344;-31
2023/07/24 07:37:05;;;;;;;;;;;20.00;82.50;;;;;;5113571;28;19914;-28
2023/07/24 07:39:31;;;;;;;;;;;20.00;82.50;;;;;;5114055;28;19908;-27
2023/07/24 07:41:56;;;;;;;;;;;20.00;82.40;;;;;;5113836;28;20267;-26
2023/07/24 07:44:21;;;;;;;;;;;20.00;82.30;;;;;;5113827;28;19976;-28
2023/07/24 07:46:47;;;;;;;;;;;20.00;82.30;;;;;;5113684;28;19990;-26
2023/07/24 07:49:13;;;;;;;;;;;20.00;82.20;;;;;;5113593;28;20014;-26
2023/07/24 07:51:38;;;;;;;;;;;20.10;82.20;;;;;;5113796;28;19908;-27
2023/07/24 07:54:04;;;;;;;;;;;20.10;82.10;;;;;;5095271;28;19908;-31
2023/07/24 07:56:29;;;;;;;;;;;20.10;82.00;;;;;;5113660;28;19912;-30
2023/07/24 07:58:55;;;;;;;;;;;20.20;81.90;;;;;;5113393;28;19908;-27
2023/07/24 08:01:20;;;;;;;;;;;20.30;81.80;;;;;;5113387;28;19919;-32
2023/07/24 08:03:45;;;;;;;;;;;20.40;81.50;;;;;;5113430;28;19956;-26
2023/07/24 08:06:12;;;;;;;;;;;20.50;81.30;;;;;;5113381;28;20426;-33
2023/07/24 08:08:37;;;;;;;;;;;20.40;80.60;;;;;;5113252;28;19908;-40
2023/07/24 08:11:04;;;;;;;;;;;20.30;80.90;;;;;;5113364;28;19919;-28
2023/07/24 08:13:29;;;;;;;;;;;20.20;81.30;;;;;;5110109;28;20002;-29
2023/07/24 08:15:54;;;;;;;;;;;20.10;81.50;;;;;;5113325;28;19970;-27
2023/07/24 08:18:20;;;;;;;;;;;20.00;81.70;;;;;;5094775;28;19969;-27
2023/07/24 08:20:45;;;;;;;;;;;19.90;82.00;;;;;;5113257;28;19915;-26
2023/07/24 08:23:11;;;;;;;;;;;19.80;82.20;;;;;;5113087;28;20290;-26
2023/07/24 08:25:36;;;;;;;;;;;19.70;82.30;;;;;;5113048;28;19912;-27
2023/07/24 08:28:02;;;;;;;;;;;19.60;82.40;;;;;;5113371;28;19908;-38
2023/07/24 08:30:28;;;;;;;;;;;19.60;82.60;;;;;;5113173;28;19950;-29
2023/07/24 08:32:54;;;;;;;;;;;19.60;82.80;;;;;;5109930;28;19911;-28
2023/07/24 08:35:19;;;;;;;;;;;19.60;82.70;;;;;;5112959;28;19964;-27
2023/07/24 08:37:45;;;;;;;;;;;19.70;83.00;;;;;;5113158;28;19949;-27
2023/07/24 08:40:11;;;;;;;;;;;19.80;82.80;;;;;;5113290;28;19908;-27
2023/07/24 08:42:40;;;;;;;;;;;20.00;82.40;;;;;;5113151;28;20304;-27
2023/07/24 08:45:10;;;;;;;;;;;20.10;82.20;;;;;;5094735;28;19919;-27
2023/07/24 08:47:36;;;;;;;;;;;20.20;82.00;;;;;;5113013;28;19933;-26
2023/07/24 08:50:01;;;;;;;;;;;20.30;81.90;;;;;;5094835;28;19912;-30
2023/07/24 08:52:27;;;;;;;;;;;20.30;81.80;;;;;;5113111;28;19915;-26
2023/07/24 08:54:54;;;;;;;;;;;20.40;81.60;;;;;;5112915;28;19907;-26
2023/07/24 08:57:20;;;;;;;;;;;20.50;81.10;;;;;;5112916;28;19976;-33
2023/07/24 08:59:45;;;;;;;;;;;20.60;80.80;;;;;;5112997;28;19907;-30
2023/07/24 09:02:11;;;;;;;;;;;20.70;80.50;;;;;;5112900;28;20355;-27
2023/07/24 09:04:37;;;;;;;;;;;20.80;80.40;;;;;;5112871;28;19951;-28
2023/07/24 09:07:02;;;;;;;;;;;20.90;80.20;;;;;;5112994;28;19912;-29
2023/07/24 09:09:31;;;;;;;;;;;21.10;79.60;;;;;;5112781;28;20351;-26
2023/07/24 09:11:58;;;;;;;;;;;21.10;78.00;;;;;;5112976;28;19908;-28
2023/07/24 09:14:24;;;;;;;;;;;21.00;77.90;;;;;;5112829;28;20439;-28
2023/07/24 09:16:53;;;;;;;;;;;21.00;77.60;;;;;;5094764;28;19912;-27
2023/07/24 09:19:19;;;;;;;;;;;20.90;78.00;;;;;;5095171;28;20359;-27
2023/07/24 09:21:44;;;;;;;;;;;21.00;78.40;;;;;;5112646;28;19907;-27
2023/07/24 09:24:11;;;;;;;;;;;21.10;78.00;;;;;;5112437;28;19920;-30
2023/07/24 09:26:46;;;;;;;;;;;21.20;78.00;;;;;;5112756;28;19942;-32
2023/07/24 09:29:11;;;;;;;;;;;21.30;77.70;;;;;;5112426;28;19908;-28
2023/07/24 09:31:37;;;;;;;;;;;21.40;77.30;;;;;;5112781;28;19908;-31
2023/07/24 09:34:02;;;;;;;;;;;21.40;76.70;;;;;;5112836;28;19908;-30
2023/07/24 09:36:36;;;;;;;;;;;21.40;76.60;;;;;;5115656;28;19932;-27
2023/07/24 09:39:06;;;;;;;;;;;21.40;76.00;;;;;;5116439;28;19907;-27
2023/07/24 09:41:31;;;;;;;;;;;21.50;76.10;;;;;;5115968;28;19908;-30
2023/07/24 09:44:00;;;;;;;;;;;21.50;76.10;;;;;;5116183;28;19908;-28
2023/07/24 09:46:26;;;;;;;;;;;21.50;76.10;;;;;;5115970;28;19998;-27
2023/07/24 09:48:51;;;;;;;;;;;21.60;76.20;;;;;;5115800;28;19951;-28
2023/07/24 09:51:17;;;;;;;;;;;21.70;75.90;;;;;;5115850;28;19912;-26
2023/07/24 09:53:48;;;;;;;;;;;21.70;75.70;;;;;;5116131;28;19908;-27
2023/07/24 09:56:14;;;;;;;;;;;21.70;74.00;;;;;;5115868;28;19957;-27
2023/07/24 09:58:43;;;;;;;;;;;21.60;73.80;;;;;;5116135;28;19984;-28
2023/07/24 10:01:08;;;;;;;;;;;21.50;72.50;;;;;;5116098;28;19930;-31
2023/07/24 10:03:35;;;;;;;;;;;21.50;73.40;;;;;;5115634;28;19908;-28
2023/07/24 10:06:01;;;;;;;;;;;21.50;73.10;;;;;;5115540;28;19916;-29
2023/07/24 10:08:28;;;;;;;;;;;21.60;72.90;;;;;;5115577;28;19908;-26
2023/07/24 10:10:53;;;;;;;;;;;21.60;73.00;;;;;;5115471;28;20002;-27
2023/07/24 10:13:20;;;;;;;;;;;21.70;73.00;;;;;;5115781;28;19946;-26
2023/07/24 10:15:46;;;;;;;;;;;21.70;73.10;;;;;;5115566;28;20002;-28
2023/07/24 10:18:25;;;;;;;;;;;21.60;72.50;;;;;;5115336;28;19972;-29
2023/07/24 10:20:59;;;;;;;;;;;21.40;73.30;;;;;;5115176;28;20359;-28
2023/07/24 10:23:24;;;;;;;;;;;21.30;73.70;;;;;;5115351;28;19915;-29
2023/07/24 10:25:52;;;;;;;;;;;21.30;74.60;;;;;;5115389;28;19915;-34
2023/07/24 10:28:18;;;;;;;;;;;21.40;73.70;;;;;;5115220;28;20367;-26
2023/07/24 10:30:44;;;;;;;;;;;21.40;73.80;;;;;;5115377;28;19914;-26
2023/07/24 10:33:19;;;;;;;;;;;21.50;73.40;;;;;;5115273;28;20006;-26
2023/07/24 10:35:46;;;;;;;;;;;21.60;73.10;;;;;;5115019;28;19908;-28
2023/07/24 10:38:12;;;;;;;;;;;21.50;72.70;;;;;;5114987;28;19962;-27
2023/07/24 10:40:39;;;;;;;;;;;21.50;72.80;;;;;;5114931;28;19912;-29
2023/07/24 10:43:06;;;;;;;;;;;21.50;72.80;;;;;;5115023;28;19907;-26
2023/07/24 10:45:41;;;;;;;;;;;21.50;73.00;;;;;;5114893;28;19912;-27
2023/07/24 10:48:07;;;;;;;;;;;21.60;72.80;;;;;;5114103;28;19935;-25
2023/07/24 10:50:42;;;;;;;;;;;21.60;72.90;;;;;;5115046;28;20546;-26
2023/07/24 10:53:08;;;;;;;;;;;21.60;73.10;;;;;;5114738;28;19916;-27
2023/07/24 10:55:34;;;;;;;;;;;21.60;72.90;;;;;;5114430;28;19994;-30
2023/07/24 10:57:59;;;;;;;;;;;21.60;73.10;;;;;;5114742;28;20444;-25
2023/07/24 11:00:26;;;;;;;;;;;21.60;73.20;;;;;;5114554;28;19908;-26
2023/07/24 11:02:53;;;;;;;;;;;21.60;73.30;;;;;;5114513;28;20381;-27
2023/07/24 11:05:20;;;;;;;;;;;21.60;73.30;;;;;;5114306;28;20272;-26
2023/07/24 11:07:46;;;;;;;;;;;21.60;73.40;;;;;;5114356;28;19912;-27
2023/07/24 11:10:15;;;;;;;;;;;21.60;73.30;;;;;;5114468;28;19915;-27
2023/07/24 11:12:41;;;;;;;;;;;21.60;73.40;;;;;;5114343;28;20389;-28
2023/07/24 11:15:07;;;;;;;;;;;21.60;73.40;;;;;;5114236;28;19908;-29
2023/07/24 11:17:37;;;;;;;;;;;21.70;73.30;;;;;;5114148;28;19908;-39
2023/07/24 11:20:20;;;;;;;;;;;21.80;72.50;;;;;;5114135;28;20364;-29
2023/07/24 11:22:46;;;;;;;;;;;21.80;72.30;;;;;;5114037;28;19912;-26
2023/07/24 11:25:12;;;;;;;;;;;21.90;72.40;;;;;;5114125;28;19919;-28
2023/07/24 11:27:38;;;;;;;;;;;22.00;72.30;;;;;;5110728;28;19938;-27
2023/07/24 11:30:04;;;;;;;;;;;22.20;72.40;;;;;;5114015;28;19960;-28
2023/07/24 11:32:29;;;;;;;;;;;22.20;71.80;;;;;;5114024;28;19983;-34
2023/07/24 11:34:55;;;;;;;;;;;22.30;71.10;;;;;;5113775;28;19912;-26
2023/07/24 11:37:21;;;;;;;;;;;22.20;71.30;;;;;;5114162;28;19908;-27
2023/07/24 11:39:56;;;;;;;;;;;22.20;71.50;;;;;;5113803;28;20419;-28
2023/07/24 11:42:24;;;;;;;;;;;22.20;71.50;;;;;;5113738;28;20378;-27
2023/07/24 11:44:49;;;;;;;;;;;22.10;71.40;;;;;;5113613;28;19976;-28
2023/07/24 11:47:15;;;;;;;;;;;22.00;71.60;;;;;;5113699;28;20333;-25
2023/07/24 11:49:47;;;;;;;;;;;22.00;71.60;;;;;;5113455;28;19920;-29
2023/07/24 11:52:12;;;;;;;;;;;21.90;71.50;;;;;;5111494;28;19965;-30
2023/07/24 11:54:38;;;;;;;;;;;22.00;71.80;;;;;;5095153;28;19912;-27
2023/07/24 11:57:15;;;;;;;;;;;22.10;71.80;;;;;;5112856;28;20289;-30
2023/07/24 11:59:41;;;;;;;;;;;22.20;71.60;;;;;;5113530;28;19980;-27
2023/07/24 12:02:09;;;;;;;;;;;22.20;71.10;;;;;;5110423;28;19912;-26
2023/07/24 12:04:34;;;;;;;;;;;22.30;70.30;;;;;;5113381;28;19912;-30
2023/07/24 12:07:00;;;;;;;;;;;22.30;70.20;;;;;;5113508;28;20003;-26
2023/07/24 12:09:29;;;;;;;;;;;22.30;70.50;;;;;;5113271;28;19968;-27
2023/07/24 12:11:58;;;;;;;;;;;22.40;70.30;;;;;;5113323;28;20386;-30
2023/07/24 12:14:23;;;;;;;;;;;22.40;70.20;;;;;;5113502;28;19908;-25
2023/07/24 12:16:49;;;;;;;;;;;22.50;70.20;;;;;;5113345;28;19983;-30
2023/07/24 12:19:14;;;;;;;;;;;22.60;70.00;;;;;;5113280;28;19907;-27
2023/07/24 12:21:40;;;;;;;;;;;22.60;70.10;;;;;;5113337;28;19919;-26
2023/07/24 12:24:05;;;;;;;;;;;22.70;70.10;;;;;;5113138;28;19908;-26
2023/07/24 12:26:31;;;;;;;;;;;22.80;70.00;;;;;;5113370;28;19952;-29
2023/07/24 12:28:57;;;;;;;;;;;23.00;68.70;;;;;;5110008;28;19912;-27
2023/07/24 12:31:23;;;;;;;;;;;23.00;68.40;;;;;;5113246;28;19908;-27
2023/07/24 12:33:48;;;;;;;;;;;23.00;68.40;;;;;;5113184;28;19915;-28
2023/07/24 12:36:14;;;;;;;;;;;23.00;67.80;;;;;;5094532;28;19914;-27
2023/07/24 12:38:39;;;;;;;;;;;22.90;67.10;;;;;;5113156;28;19912;-28
2023/07/24 12:41:05;;;;;;;;;;;22.90;67.10;;;;;;5113105;28;19908;-28
2023/07/24 12:43:30;;;;;;;;;;;22.70;67.50;;;;;;5113023;28;19911;-26
2023/07/24 12:45:56;;;;;;;;;;;22.70;68.00;;;;;;5112934;28;20367;-27
2023/07/24 12:48:21;;;;;;;;;;;22.70;68.60;;;;;;5112858;28;20337;-28
2023/07/24 12:50:47;;;;;;;;;;;22.60;68.70;;;;;;5113119;28;19912;-28
2023/07/24 12:53:12;;;;;;;;;;;22.70;68.90;;;;;;5112946;28;19911;-31
2023/07/24 12:55:38;;;;;;;;;;;22.80;68.90;;;;;;5112968;28;19916;-27
2023/07/24 12:58:04;;;;;;;;;;;22.90;68.00;;;;;;5112954;28;20002;-26
2023/07/24 13:00:30;;;;;;;;;;;22.90;68.00;;;;;;5112888;28;20401;-36
2023/07/24 13:02:55;;;;;;;;;;;22.90;68.40;;;;;;5112930;28;19953;-32
2023/07/24 13:05:20;;;;;;;;;;;22.90;68.20;;;;;;5112819;28;19939;-27
2023/07/24 13:07:46;;;;;;;;;;;23.00;67.30;;;;;;5112825;28;19912;-28
2023/07/24 13:10:11;;;;;;;;;;;23.10;66.40;;;;;;5114370;28;20320;-26
2023/07/24 13:12:37;;;;;;;;;;;23.20;66.30;;;;;;5116637;28;19912;-28
2023/07/24 13:15:03;;;;;;;;;;;23.30;66.30;;;;;;5116826;28;19912;-27
2023/07/24 13:17:29;;;;;;;;;;;23.50;65.40;;;;;;5116540;28;19924;-27
2023/07/24 13:19:55;;;;;;;;;;;23.50;64.90;;;;;;5116838;28;20308;-27
2023/07/24 13:22:21;;;;;;;;;;;23.60;64.70;;;;;;5116389;28;19912;-32
2023/07/24 13:24:47;;;;;;;;;;;23.70;64.60;;;;;;5116426;28;19923;-29
2023/07/24 13:27:12;;;;;;;;;;;23.80;63.90;;;;;;5116460;28;19912;-29
2023/07/24 13:29:38;;;;;;;;;;;23.90;63.50;;;;;;5116288;28;20371;-28
2023/07/24 13:32:03;;;;;;;;;;;24.00;63.20;;;;;;5116381;28;19919;-29
2023/07/24 13:34:29;;;;;;;;;;;24.00;62.50;;;;;;5097845;28;20263;-27
2023/07/24 13:36:54;;;;;;;;;;;24.10;62.10;;;;;;5116225;28;19972;-28
2023/07/24 13:39:20;;;;;;;;;;;24.10;62.50;;;;;;5116219;28;19976;-32
2023/07/24 13:41:45;;;;;;;;;;;24.10;61.80;;;;;;5116294;28;19918;-29
2023/07/24 13:44:11;;;;;;;;;;;24.10;61.90;;;;;;5116179;28;19919;-29
2023/07/24 13:46:36;;;;;;;;;;;24.20;61.80;;;;;;5115984;28;19916;-29
2023/07/24 13:49:03;;;;;;;;;;;24.30;61.80;;;;;;5115810;28;19999;-26
2023/07/24 13:51:28;;;;;;;;;;;24.50;61.80;;;;;;5116111;28;19985;-29
2023/07/24 13:53:54;;;;;;;;;;;24.70;62.40;;;;;;5115853;28;19912;-27
2023/07/24 13:56:22;;;;;;;;;;;24.90;61.50;;;;;;5115769;28;19912;-31
2023/07/24 13:58:47;;;;;;;;;;;25.10;61.10;;;;;;5115824;28;19912;-29
2023/07/24 14:01:13;;;;;;;;;;;25.20;60.20;;;;;;5115744;28;20279;-27
2023/07/24 14:03:38;;;;;;;;;;;25.30;60.00;;;;;;5115636;28;19912;-27
2023/07/24 14:06:04;;;;;;;;;;;25.40;59.70;;;;;;5115626;28;19974;-27
2023/07/24 14:08:30;;;;;;;;;;;25.50;59.20;;;;;;5115647;28;20323;-28
2023/07/24 14:10:55;;;;;;;;;;;25.60;59.20;;;;;;5115620;28;19912;-29